sensor_id;sensor_type;location;lat;lon;timestamp;pressure;altitude;pressure_sealevel;temperature;humidity
75045;BME280;63614;56.026;35.960;2022-12-29T00:02:09;99040.06;;;-1.57;76.96
75045;BME280;63614;56.026;35.960;2022-12-29T00:04:35;99035.88;;;-1.58;76.79
75045;BME280;63614;56.026;35.960;2022-12-29T00:07:00;99033.13;;;-1.67;76.64
75045;BME280;63614;56.026;35.960;2022-12-29T00:09:26;99036.13;;;-1.73;77.52
75045;BME280;63614;56.026;35.960;2022-12-29T00:11:52;99035.66;;;-1.67;77.33
75045;BME280;63614;56.026;35.960;2022-12-29T00:14:19;99046.91;;;-1.69;76.95
75045;BME280;63614;56.026;35.960;2022-12-29T00:17:03;99040.66;;;-1.76;76.80
75045;BME280;63614;56.026;35.960;2022-12-29T00:19:29;99049.09;;;-1.76;77.05
75045;BME280;63614;56.026;35.960;2022-12-29T00:22:14;99047.28;;;-1.74;76.87
75045;BME280;63614;56.026;35.960;2022-12-29T00:24:58;99044.72;;;-1.62;76.57
75045;BME280;63614;56.026;35.960;2022-12-29T00:27:31;99044.47;;;-1.82;76.40
75045;BME280;63614;56.026;35.960;2022-12-29T00:30:19;99046.81;;;-1.90;76.98
75045;BME280;63614;56.026;35.960;2022-12-29T00:33:19;99053.75;;;-1.70;77.21
75045;BME280;63614;56.026;35.960;2022-12-29T00:39:03;99050.28;;;-1.80;77.06
75045;BME280;63614;56.026;35.960;2022-12-29T00:41:51;99045.50;;;-1.62;76.64
75045;BME280;63614;56.026;35.960;2022-12-29T00:44:35;99048.03;;;-1.51;75.96
75045;BME280;63614;56.026;35.960;2022-12-29T00:47:01;99058.03;;;-1.59;75.71
75045;BME280;63614;56.026;35.960;2022-12-29T00:49:32;99058.09;;;-1.38;75.65
75045;BME280;63614;56.026;35.960;2022-12-29T00:54:25;99060.81;;;-1.51;75.44
75045;BME280;63614;56.026;35.960;2022-12-29T00:56:51;99060.69;;;-1.49;75.78
75045;BME280;63614;56.026;35.960;2022-12-29T00:59:18;99059.28;;;-1.53;75.94
75045;BME280;63614;56.026;35.960;2022-12-29T01:01:45;99057.69;;;-1.54;76.70
75045;BME280;63614;56.026;35.960;2022-12-29T01:04:11;99076.28;;;-1.31;76.20
75045;BME280;63614;56.026;35.960;2022-12-29T01:06:39;99074.63;;;-1.10;75.60
75045;BME280;63614;56.026;35.960;2022-12-29T01:09:05;99084.66;;;-0.85;75.14
75045;BME280;63614;56.026;35.960;2022-12-29T01:11:50;99085.00;;;-0.90;74.67
75045;BME280;63614;56.026;35.960;2022-12-29T01:14:16;99076.81;;;-0.73;74.26
75045;BME280;63614;56.026;35.960;2022-12-29T01:16:42;99077.75;;;-1.06;75.25
75045;BME280;63614;56.026;35.960;2022-12-29T01:19:08;99070.84;;;-0.83;74.57
75045;BME280;63614;56.026;35.960;2022-12-29T01:21:34;99072.72;;;-0.96;74.94
75045;BME280;63614;56.026;35.960;2022-12-29T01:24:00;99075.25;;;-0.85;74.73
75045;BME280;63614;56.026;35.960;2022-12-29T01:26:25;99074.03;;;-1.02;75.66
75045;BME280;63614;56.026;35.960;2022-12-29T01:28:51;99068.53;;;-0.86;74.49
75045;BME280;63614;56.026;35.960;2022-12-29T01:31:17;99074.19;;;-0.82;74.82
75045;BME280;63614;56.026;35.960;2022-12-29T01:33:43;99068.09;;;-1.02;74.79
75045;BME280;63614;56.026;35.960;2022-12-29T01:36:11;99068.78;;;-0.89;74.84
75045;BME280;63614;56.026;35.960;2022-12-29T01:38:38;99068.72;;;-1.10;75.22
75045;BME280;63614;56.026;35.960;2022-12-29T01:41:05;99074.41;;;-1.06;75.32
75045;BME280;63614;56.026;35.960;2022-12-29T01:43:58;99072.97;;;-0.99;75.26
75045;BME280;63614;56.026;35.960;2022-12-29T01:46:41;99079.78;;;-0.88;75.06
75045;BME280;63614;56.026;35.960;2022-12-29T01:49:19;99083.38;;;-0.80;74.42
75045;BME280;63614;56.026;35.960;2022-12-29T01:51:52;99093.94;;;-0.84;74.80
75045;BME280;63614;56.026;35.960;2022-12-29T01:54:32;99093.06;;;-0.74;73.96
75045;BME280;63614;56.026;35.960;2022-12-29T01:57:03;99091.50;;;-0.86;74.48
75045;BME280;63614;56.026;35.960;2022-12-29T01:59:34;99093.22;;;-0.86;74.81
75045;BME280;63614;56.026;35.960;2022-12-29T02:02:01;99096.81;;;-0.78;74.52
75045;BME280;63614;56.026;35.960;2022-12-29T02:04:29;99090.97;;;-0.68;74.20
75045;BME280;63614;56.026;35.960;2022-12-29T02:07:01;99082.34;;;-0.88;74.68
75045;BME280;63614;56.026;35.960;2022-12-29T02:09:28;99084.69;;;-0.97;75.34
75045;BME280;63614;56.026;35.960;2022-12-29T02:11:54;99085.63;;;-0.98;75.16
75045;BME280;63614;56.026;35.960;2022-12-29T02:14:20;99087.19;;;-0.85;74.99
75045;BME280;63614;56.026;35.960;2022-12-29T02:22:13;99071.41;;;-1.12;75.36
75045;BME280;63614;56.026;35.960;2022-12-29T02:36:10;99078.75;;;-0.86;73.69
75045;BME280;63614;56.026;35.960;2022-12-29T02:38:47;99079.53;;;-0.85;73.58
75045;BME280;63614;56.026;35.960;2022-12-29T02:47:00;99082.28;;;-1.10;74.77
75045;BME280;63614;56.026;35.960;2022-12-29T02:49:37;99083.94;;;-1.08;75.37
75045;BME280;63614;56.026;35.960;2022-12-29T02:52:06;99084.66;;;-0.85;74.47
75045;BME280;63614;56.026;35.960;2022-12-29T02:54:35;99081.94;;;-0.73;73.28
75045;BME280;63614;56.026;35.960;2022-12-29T02:57:30;99083.03;;;-0.86;74.02
75045;BME280;63614;56.026;35.960;2022-12-29T03:00:14;99084.75;;;-1.19;75.28
75045;BME280;63614;56.026;35.960;2022-12-29T03:10:54;99104.72;;;-1.24;74.91
75045;BME280;63614;56.026;35.960;2022-12-29T03:13:44;99108.00;;;-1.45;76.41
75045;BME280;63614;56.026;35.960;2022-12-29T03:16:44;99104.56;;;-1.23;75.61
75045;BME280;63614;56.026;35.960;2022-12-29T03:21:48;99105.72;;;-1.04;74.86
75045;BME280;63614;56.026;35.960;2022-12-29T03:24:42;99109.94;;;-1.37;76.11
75045;BME280;63614;56.026;35.960;2022-12-29T03:27:12;99110.03;;;-1.16;76.02
75045;BME280;63614;56.026;35.960;2022-12-29T03:29:47;99101.19;;;-1.12;75.47
75045;BME280;63614;56.026;35.960;2022-12-29T03:32:20;99103.47;;;-0.98;75.64
75045;BME280;63614;56.026;35.960;2022-12-29T03:34:48;99103.13;;;-0.93;75.02
75045;BME280;63614;56.026;35.960;2022-12-29T03:37:20;99101.78;;;-1.08;74.98
75045;BME280;63614;56.026;35.960;2022-12-29T03:39:47;99102.56;;;-0.97;75.10
75045;BME280;63614;56.026;35.960;2022-12-29T03:42:15;99109.31;;;-0.96;75.13
75045;BME280;63614;56.026;35.960;2022-12-29T03:44:43;99111.13;;;-0.98;75.21
75045;BME280;63614;56.026;35.960;2022-12-29T03:47:13;99098.56;;;-1.22;75.44
75045;BME280;63614;56.026;35.960;2022-12-29T03:49:39;99109.13;;;-1.38;75.95
75045;BME280;63614;56.026;35.960;2022-12-29T03:52:07;99123.13;;;-1.10;75.67
75045;BME280;63614;56.026;35.960;2022-12-29T03:54:41;99109.91;;;-1.03;74.60
75045;BME280;63614;56.026;35.960;2022-12-29T03:57:08;99119.50;;;-0.96;74.34
75045;BME280;63614;56.026;35.960;2022-12-29T03:59:44;99119.50;;;-1.07;74.69
75045;BME280;63614;56.026;35.960;2022-12-29T04:02:11;99125.25;;;-1.26;75.55
75045;BME280;63614;56.026;35.960;2022-12-29T04:04:37;99135.78;;;-1.19;75.44
75045;BME280;63614;56.026;35.960;2022-12-29T04:07:03;99117.75;;;-0.95;74.81
75045;BME280;63614;56.026;35.960;2022-12-29T04:09:29;99115.44;;;-0.98;74.67
75045;BME280;63614;56.026;35.960;2022-12-29T04:11:57;99113.31;;;-0.82;74.38
75045;BME280;63614;56.026;35.960;2022-12-29T04:14:23;99118.59;;;-0.74;73.84
75045;BME280;63614;56.026;35.960;2022-12-29T04:16:51;99105.13;;;-0.97;74.27
75045;BME280;63614;56.026;35.960;2022-12-29T04:19:17;99114.09;;;-1.25;75.26
75045;BME280;63614;56.026;35.960;2022-12-29T04:21:42;99114.34;;;-1.39;76.22
75045;BME280;63614;56.026;35.960;2022-12-29T04:24:08;99111.78;;;-1.28;75.39
75045;BME280;63614;56.026;35.960;2022-12-29T04:26:39;99107.63;;;-1.52;76.21
75045;BME280;63614;56.026;35.960;2022-12-29T04:29:23;99112.88;;;-1.42;75.65
75045;BME280;63614;56.026;35.960;2022-12-29T04:32:11;99120.16;;;-1.83;76.71
75045;BME280;63614;56.026;35.960;2022-12-29T04:34:43;99105.88;;;-1.96;77.80
75045;BME280;63614;56.026;35.960;2022-12-29T04:37:09;99116.22;;;-1.75;77.05
75045;BME280;63614;56.026;35.960;2022-12-29T04:39:36;99111.94;;;-1.75;76.64
75045;BME280;63614;56.026;35.960;2022-12-29T04:42:03;99103.00;;;-1.69;76.68
75045;BME280;63614;56.026;35.960;2022-12-29T04:44:29;99111.13;;;-1.64;76.64
75045;BME280;63614;56.026;35.960;2022-12-29T04:47:10;99112.72;;;-1.63;76.17
75045;BME280;63614;56.026;35.960;2022-12-29T04:49:47;99111.47;;;-1.57;76.38
75045;BME280;63614;56.026;35.960;2022-12-29T04:52:29;99110.06;;;-1.73;76.70
75045;BME280;63614;56.026;35.960;2022-12-29T04:54:56;99116.22;;;-1.75;76.80
75045;BME280;63614;56.026;35.960;2022-12-29T04:57:22;99119.47;;;-1.85;77.03
75045;BME280;63614;56.026;35.960;2022-12-29T04:59:53;99124.56;;;-1.96;77.59
75045;BME280;63614;56.026;35.960;2022-12-29T05:02:19;99129.75;;;-1.97;76.97
75045;BME280;63614;56.026;35.960;2022-12-29T05:04:47;99133.34;;;-2.00;77.33
75045;BME280;63614;56.026;35.960;2022-12-29T05:07:14;99138.31;;;-1.98;77.20
75045;BME280;63614;56.026;35.960;2022-12-29T05:09:41;99143.31;;;-1.97;77.58
75045;BME280;63614;56.026;35.960;2022-12-29T05:12:07;99140.75;;;-1.97;76.88
75045;BME280;63614;56.026;35.960;2022-12-29T05:14:37;99135.00;;;-1.88;77.01
75045;BME280;63614;56.026;35.960;2022-12-29T05:17:03;99131.00;;;-2.03;77.41
75045;BME280;63614;56.026;35.960;2022-12-29T05:19:29;99137.28;;;-2.07;77.49
75045;BME280;63614;56.026;35.960;2022-12-29T05:21:55;99131.34;;;-2.08;77.58
75045;BME280;63614;56.026;35.960;2022-12-29T05:24:21;99126.25;;;-2.08;77.73
75045;BME280;63614;56.026;35.960;2022-12-29T05:26:47;99131.19;;;-2.29;78.10
75045;BME280;63614;56.026;35.960;2022-12-29T05:29:31;99122.19;;;-2.22;78.42
75045;BME280;63614;56.026;35.960;2022-12-29T05:31:57;99128.78;;;-2.19;77.71
75045;BME280;63614;56.026;35.960;2022-12-29T05:34:23;99130.16;;;-2.26;77.85
75045;BME280;63614;56.026;35.960;2022-12-29T05:36:49;99131.28;;;-2.42;78.42
75045;BME280;63614;56.026;35.960;2022-12-29T05:39:16;99127.13;;;-2.31;77.95
75045;BME280;63614;56.026;35.960;2022-12-29T05:41:45;99141.25;;;-2.39;78.57
75045;BME280;63614;56.026;35.960;2022-12-29T05:44:26;99134.22;;;-2.24;78.17
75045;BME280;63614;56.026;35.960;2022-12-29T05:47:23;99135.06;;;-2.12;77.55
75045;BME280;63614;56.026;35.960;2022-12-29T05:50:02;99134.25;;;-2.01;76.71
75045;BME280;63614;56.026;35.960;2022-12-29T05:52:48;99143.16;;;-2.18;77.57
75045;BME280;63614;56.026;35.960;2022-12-29T05:55:14;99145.75;;;-2.42;77.58
75045;BME280;63614;56.026;35.960;2022-12-29T05:57:41;99136.72;;;-2.35;77.94
75045;BME280;63614;56.026;35.960;2022-12-29T06:00:10;99151.31;;;-2.37;77.45
75045;BME280;63614;56.026;35.960;2022-12-29T06:02:45;99153.28;;;-2.41;77.65
75045;BME280;63614;56.026;35.960;2022-12-29T06:05:12;99167.25;;;-2.11;76.32
75045;BME280;63614;56.026;35.960;2022-12-29T06:07:39;99150.59;;;-2.04;75.95
75045;BME280;63614;56.026;35.960;2022-12-29T06:10:05;99153.75;;;-1.89;75.91
75045;BME280;63614;56.026;35.960;2022-12-29T06:12:40;99156.50;;;-2.03;75.68
75045;BME280;63614;56.026;35.960;2022-12-29T06:15:06;99153.03;;;-2.02;76.18
75045;BME280;63614;56.026;35.960;2022-12-29T06:17:33;99154.41;;;-1.98;75.72
75045;BME280;63614;56.026;35.960;2022-12-29T06:19:59;99164.78;;;-1.88;75.35
75045;BME280;63614;56.026;35.960;2022-12-29T06:22:25;99158.72;;;-1.98;75.60
75045;BME280;63614;56.026;35.960;2022-12-29T06:24:52;99152.56;;;-2.07;76.25
75045;BME280;63614;56.026;35.960;2022-12-29T06:27:18;99156.47;;;-2.14;76.10
75045;BME280;63614;56.026;35.960;2022-12-29T06:29:44;99172.97;;;-2.07;76.42
75045;BME280;63614;56.026;35.960;2022-12-29T06:32:10;99168.56;;;-1.94;75.79
75045;BME280;63614;56.026;35.960;2022-12-29T06:34:40;99169.75;;;-1.87;75.68
75045;BME280;63614;56.026;35.960;2022-12-29T06:37:06;99171.38;;;-1.74;75.14
75045;BME280;63614;56.026;35.960;2022-12-29T06:39:32;99165.81;;;-1.79;75.61
75045;BME280;63614;56.026;35.960;2022-12-29T06:42:04;99168.81;;;-1.86;75.92
75045;BME280;63614;56.026;35.960;2022-12-29T06:44:48;99165.78;;;-2.02;76.67
75045;BME280;63614;56.026;35.960;2022-12-29T06:47:13;99161.84;;;-1.95;76.34
75045;BME280;63614;56.026;35.960;2022-12-29T06:49:39;99165.03;;;-1.80;76.37
75045;BME280;63614;56.026;35.960;2022-12-29T06:52:05;99151.41;;;-1.92;76.66
75045;BME280;63614;56.026;35.960;2022-12-29T06:54:31;99163.69;;;-1.97;76.62
75045;BME280;63614;56.026;35.960;2022-12-29T06:56:57;99163.72;;;-1.86;77.40
75045;BME280;63614;56.026;35.960;2022-12-29T06:59:23;99167.22;;;-1.75;76.88
75045;BME280;63614;56.026;35.960;2022-12-29T07:01:50;99165.03;;;-1.80;77.52
75045;BME280;63614;56.026;35.960;2022-12-29T07:04:16;99159.25;;;-1.71;76.77
75045;BME280;63614;56.026;35.960;2022-12-29T07:06:41;99168.72;;;-1.73;76.88
75045;BME280;63614;56.026;35.960;2022-12-29T07:09:08;99164.47;;;-1.61;76.43
75045;BME280;63614;56.026;35.960;2022-12-29T07:11:36;99159.25;;;-1.71;76.58
75045;BME280;63614;56.026;35.960;2022-12-29T07:14:02;99158.91;;;-1.43;75.88
75045;BME280;63614;56.026;35.960;2022-12-29T07:16:28;99156.56;;;-1.47;75.91
75045;BME280;63614;56.026;35.960;2022-12-29T07:18:56;99148.47;;;-1.40;75.76
75045;BME280;63614;56.026;35.960;2022-12-29T07:21:22;99155.28;;;-1.52;76.02
75045;BME280;63614;56.026;35.960;2022-12-29T07:23:48;99150.66;;;-1.47;76.30
75045;BME280;63614;56.026;35.960;2022-12-29T07:26:15;99167.94;;;-1.51;76.38
75045;BME280;63614;56.026;35.960;2022-12-29T07:28:43;99157.16;;;-1.43;76.41
75045;BME280;63614;56.026;35.960;2022-12-29T07:31:14;99159.34;;;-1.38;76.29
75045;BME280;63614;56.026;35.960;2022-12-29T07:33:41;99159.22;;;-1.25;75.47
75045;BME280;63614;56.026;35.960;2022-12-29T07:36:07;99156.66;;;-1.14;75.45
75045;BME280;63614;56.026;35.960;2022-12-29T07:38:32;99165.81;;;-1.00;75.27
75045;BME280;63614;56.026;35.960;2022-12-29T07:40:58;99153.53;;;-1.18;75.43
75045;BME280;63614;56.026;35.960;2022-12-29T07:43:24;99157.34;;;-1.12;75.74
75045;BME280;63614;56.026;35.960;2022-12-29T07:46:12;99157.22;;;-1.11;75.19
75045;BME280;63614;56.026;35.960;2022-12-29T07:48:38;99153.25;;;-0.92;74.76
75045;BME280;63614;56.026;35.960;2022-12-29T07:51:04;99167.50;;;-0.89;74.82
75045;BME280;63614;56.026;35.960;2022-12-29T07:53:30;99165.94;;;-1.02;74.72
75045;BME280;63614;56.026;35.960;2022-12-29T07:55:56;99168.94;;;-0.97;74.93
75045;BME280;63614;56.026;35.960;2022-12-29T07:58:21;99168.47;;;-0.90;74.80
75045;BME280;63614;56.026;35.960;2022-12-29T08:00:47;99157.47;;;-1.14;75.64
75045;BME280;63614;56.026;35.960;2022-12-29T08:03:13;99161.16;;;-0.95;74.81
75045;BME280;63614;56.026;35.960;2022-12-29T08:05:39;99166.28;;;-1.06;75.43
75045;BME280;63614;56.026;35.960;2022-12-29T08:08:05;99171.81;;;-0.90;75.21
75045;BME280;63614;56.026;35.960;2022-12-29T08:10:30;99176.72;;;-0.98;75.19
75045;BME280;63614;56.026;35.960;2022-12-29T08:12:57;99167.63;;;-0.80;74.51
75045;BME280;63614;56.026;35.960;2022-12-29T08:15:23;99161.81;;;-0.82;74.55
75045;BME280;63614;56.026;35.960;2022-12-29T08:17:49;99166.84;;;-0.92;74.71
75045;BME280;63614;56.026;35.960;2022-12-29T08:20:14;99164.69;;;-0.75;74.40
75045;BME280;63614;56.026;35.960;2022-12-29T08:22:40;99158.88;;;-0.66;74.48
75045;BME280;63614;56.026;35.960;2022-12-29T08:25:06;99165.25;;;-0.60;74.10
75045;BME280;63614;56.026;35.960;2022-12-29T08:27:32;99155.41;;;-0.65;74.07
75045;BME280;63614;56.026;35.960;2022-12-29T08:29:58;99150.69;;;-0.81;74.20
75045;BME280;63614;56.026;35.960;2022-12-29T08:32:26;99158.88;;;-0.66;74.30
75045;BME280;63614;56.026;35.960;2022-12-29T08:34:54;99163.94;;;-0.55;74.08
75045;BME280;63614;56.026;35.960;2022-12-29T08:37:19;99166.66;;;-0.67;74.06
75045;BME280;63614;56.026;35.960;2022-12-29T08:39:45;99166.25;;;-0.51;73.69
75045;BME280;63614;56.026;35.960;2022-12-29T08:42:11;99164.41;;;-0.49;73.87
75045;BME280;63614;56.026;35.960;2022-12-29T08:44:37;99159.09;;;-0.69;73.95
75045;BME280;63614;56.026;35.960;2022-12-29T08:47:02;99162.91;;;-0.52;73.92
75045;BME280;63614;56.026;35.960;2022-12-29T08:49:29;99161.03;;;-0.29;73.15
75045;BME280;63614;56.026;35.960;2022-12-29T08:51:55;99165.38;;;-0.62;73.85
75045;BME280;63614;56.026;35.960;2022-12-29T08:54:21;99174.22;;;-0.45;73.62
75045;BME280;63614;56.026;35.960;2022-12-29T08:56:46;99163.09;;;-0.44;73.50
75045;BME280;63614;56.026;35.960;2022-12-29T08:59:14;99160.47;;;-0.53;73.96
75045;BME280;63614;56.026;35.960;2022-12-29T09:01:41;99171.19;;;-0.39;73.65
75045;BME280;63614;56.026;35.960;2022-12-29T09:04:07;99174.91;;;-0.31;73.57
75045;BME280;63614;56.026;35.960;2022-12-29T09:06:33;99173.75;;;-0.39;73.59
75045;BME280;63614;56.026;35.960;2022-12-29T09:08:59;99172.16;;;-0.40;74.09
75045;BME280;63614;56.026;35.960;2022-12-29T09:11:25;99169.09;;;-0.33;73.61
75045;BME280;63614;56.026;35.960;2022-12-29T09:13:52;99174.09;;;-0.32;73.65
75045;BME280;63614;56.026;35.960;2022-12-29T09:16:19;99171.03;;;-0.26;73.45
75045;BME280;63614;56.026;35.960;2022-12-29T09:18:45;99166.81;;;-0.15;72.90
75045;BME280;63614;56.026;35.960;2022-12-29T09:21:12;99164.63;;;0.01;72.83
75045;BME280;63614;56.026;35.960;2022-12-29T09:23:39;99169.91;;;-0.12;72.91
75045;BME280;63614;56.026;35.960;2022-12-29T09:26:05;99163.06;;;-0.11;72.69
75045;BME280;63614;56.026;35.960;2022-12-29T09:28:31;99166.00;;;-0.16;72.85
75045;BME280;63614;56.026;35.960;2022-12-29T09:30:57;99163.44;;;-0.16;73.34
75045;BME280;63614;56.026;35.960;2022-12-29T09:33:23;99159.44;;;-0.09;73.01
75045;BME280;63614;56.026;35.960;2022-12-29T09:35:55;99152.16;;;-0.13;73.08
75045;BME280;63614;56.026;35.960;2022-12-29T09:38:22;99156.41;;;-0.03;72.50
75045;BME280;63614;56.026;35.960;2022-12-29T09:40:58;99159.94;;;0.06;72.73
75045;BME280;63614;56.026;35.960;2022-12-29T09:48:50;99161.56;;;0.07;72.89
75045;BME280;63614;56.026;35.960;2022-12-29T09:51:21;99159.34;;;0.24;72.71
75045;BME280;63614;56.026;35.960;2022-12-29T09:53:55;99167.34;;;0.09;72.78
75045;BME280;63614;56.026;35.960;2022-12-29T09:56:23;99154.44;;;0.11;72.48
75045;BME280;63614;56.026;35.960;2022-12-29T10:01:30;99150.53;;;0.07;73.15
75045;BME280;63614;56.026;35.960;2022-12-29T10:03:59;99144.91;;;0.13;73.23
75045;BME280;63614;56.026;35.960;2022-12-29T10:06:51;99145.38;;;0.28;72.35
75045;BME280;63614;56.026;35.960;2022-12-29T10:09:29;99147.84;;;0.39;71.98
75045;BME280;63614;56.026;35.960;2022-12-29T10:12:34;99153.41;;;0.44;72.33
75045;BME280;63614;56.026;35.960;2022-12-29T10:20:52;99141.72;;;0.51;72.10
75045;BME280;63614;56.026;35.960;2022-12-29T10:23:27;99148.06;;;0.57;72.02
75045;BME280;63614;56.026;35.960;2022-12-29T10:25:57;99140.13;;;0.60;71.87
75045;BME280;63614;56.026;35.960;2022-12-29T10:28:49;99149.91;;;0.45;72.63
75045;BME280;63614;56.026;35.960;2022-12-29T10:31:20;99145.56;;;0.36;72.77
75045;BME280;63614;56.026;35.960;2022-12-29T10:33:50;99138.69;;;0.36;73.10
75045;BME280;63614;56.026;35.960;2022-12-29T10:36:39;99138.75;;;0.46;72.95
75045;BME280;63614;56.026;35.960;2022-12-29T10:42:25;99132.72;;;0.67;72.25
75045;BME280;63614;56.026;35.960;2022-12-29T10:44:52;99127.84;;;0.54;72.67
75045;BME280;63614;56.026;35.960;2022-12-29T10:47:23;99132.88;;;0.65;72.39
75045;BME280;63614;56.026;35.960;2022-12-29T10:49:50;99130.78;;;0.80;71.98
75045;BME280;63614;56.026;35.960;2022-12-29T10:52:19;99126.19;;;0.84;71.92
75045;BME280;63614;56.026;35.960;2022-12-29T10:54:49;99127.81;;;0.85;72.16
75045;BME280;63614;56.026;35.960;2022-12-29T10:59:54;99126.84;;;0.86;72.41
75045;BME280;63614;56.026;35.960;2022-12-29T11:02:50;99127.25;;;0.81;72.59
75045;BME280;63614;56.026;35.960;2022-12-29T11:07:50;99127.59;;;0.57;74.04
75045;BME280;63614;56.026;35.960;2022-12-29T11:15:25;99125.06;;;0.67;73.85
75045;BME280;63614;56.026;35.960;2022-12-29T11:17:57;99117.81;;;0.72;73.79
75045;BME280;63614;56.026;35.960;2022-12-29T11:22:55;99119.53;;;0.71;73.46
75045;BME280;63614;56.026;35.960;2022-12-29T11:25:21;99127.16;;;0.93;73.41
75045;BME280;63614;56.026;35.960;2022-12-29T11:27:57;99127.56;;;0.88;73.49
75045;BME280;63614;56.026;35.960;2022-12-29T11:30:29;99127.72;;;0.96;73.36
75045;BME280;63614;56.026;35.960;2022-12-29T11:32:57;99115.28;;;0.82;73.64
75045;BME280;63614;56.026;35.960;2022-12-29T11:37:57;99117.31;;;0.88;73.55
75045;BME280;63614;56.026;35.960;2022-12-29T11:40:24;99116.22;;;1.00;72.93
75045;BME280;63614;56.026;35.960;2022-12-29T11:45:24;99099.13;;;0.91;73.62
75045;BME280;63614;56.026;35.960;2022-12-29T11:48:06;99110.44;;;0.98;73.06
75045;BME280;63614;56.026;35.960;2022-12-29T11:50:37;99116.75;;;0.94;73.75
75045;BME280;63614;56.026;35.960;2022-12-29T11:53:17;99118.53;;;0.94;73.70
75045;BME280;63614;56.026;35.960;2022-12-29T11:55:57;99115.78;;;0.66;74.27
75045;BME280;63614;56.026;35.960;2022-12-29T11:58:31;99115.25;;;0.72;74.43
75045;BME280;63614;56.026;35.960;2022-12-29T12:01:10;99114.53;;;0.60;75.26
75045;BME280;63614;56.026;35.960;2022-12-29T12:03:44;99113.06;;;0.58;75.38
75045;BME280;63614;56.026;35.960;2022-12-29T12:06:19;99114.41;;;0.62;75.31
75045;BME280;63614;56.026;35.960;2022-12-29T12:08:51;99118.72;;;0.61;74.93
75045;BME280;63614;56.026;35.960;2022-12-29T12:11:24;99120.13;;;0.75;74.59
75045;BME280;63614;56.026;35.960;2022-12-29T12:17:14;99108.88;;;0.57;75.52
75045;BME280;63614;56.026;35.960;2022-12-29T12:19:56;99114.66;;;0.59;75.38
75045;BME280;63614;56.026;35.960;2022-12-29T12:22:34;99112.63;;;0.52;75.51
75045;BME280;63614;56.026;35.960;2022-12-29T12:25:17;99113.31;;;0.54;75.55
75045;BME280;63614;56.026;35.960;2022-12-29T12:28:20;99106.00;;;0.40;75.84
75045;BME280;63614;56.026;35.960;2022-12-29T12:30:53;99108.44;;;0.42;75.81
75045;BME280;63614;56.026;35.960;2022-12-29T12:33:39;99110.41;;;0.38;76.04
75045;BME280;63614;56.026;35.960;2022-12-29T12:39:10;99110.28;;;0.40;76.17
75045;BME280;63614;56.026;35.960;2022-12-29T13:01:04;99105.91;;;0.21;77.04
75045;BME280;63614;56.026;35.960;2022-12-29T13:09:13;99115.06;;;0.23;77.29
75045;BME280;63614;56.026;35.960;2022-12-29T13:14:58;99132.44;;;0.20;77.74
75045;BME280;63614;56.026;35.960;2022-12-29T13:23:05;99119.53;;;0.00;78.09
75045;BME280;63614;56.026;35.960;2022-12-29T13:26:12;99124.25;;;0.05;78.10
75045;BME280;63614;56.026;35.960;2022-12-29T13:29:06;99128.06;;;0.10;78.23
75045;BME280;63614;56.026;35.960;2022-12-29T13:36:59;99135.41;;;0.25;77.96
75045;BME280;63614;56.026;35.960;2022-12-29T13:39:35;99135.81;;;0.30;77.69
75045;BME280;63614;56.026;35.960;2022-12-29T13:42:04;99143.34;;;0.22;78.30
75045;BME280;63614;56.026;35.960;2022-12-29T13:44:45;99141.06;;;0.28;77.94
75045;BME280;63614;56.026;35.960;2022-12-29T13:47:32;99127.31;;;0.20;78.28
75045;BME280;63614;56.026;35.960;2022-12-29T13:50:02;99129.88;;;0.20;78.78
75045;BME280;63614;56.026;35.960;2022-12-29T13:52:39;99134.88;;;0.21;78.46
75045;BME280;63614;56.026;35.960;2022-12-29T13:56:08;99131.97;;;0.35;78.24
75045;BME280;63614;56.026;35.960;2022-12-29T13:58:32;99128.28;;;0.28;78.20
75045;BME280;63614;56.026;35.960;2022-12-29T14:03:59;99130.47;;;0.33;78.45
75045;BME280;63614;56.026;35.960;2022-12-29T14:06:33;99134.59;;;0.24;78.28
75045;BME280;63614;56.026;35.960;2022-12-29T14:09:26;99134.66;;;0.34;78.40
75045;BME280;63614;56.026;35.960;2022-12-29T14:11:52;99129.91;;;0.29;78.50
75045;BME280;63614;56.026;35.960;2022-12-29T14:14:22;99133.56;;;0.36;77.93
75045;BME280;63614;56.026;35.960;2022-12-29T14:16:49;99132.31;;;0.21;78.35
75045;BME280;63614;56.026;35.960;2022-12-29T14:19:19;99131.13;;;0.35;78.12
75045;BME280;63614;56.026;35.960;2022-12-29T14:21:54;99124.13;;;0.27;78.00
75045;BME280;63614;56.026;35.960;2022-12-29T14:24:47;99128.44;;;0.36;78.08
75045;BME280;63614;56.026;35.960;2022-12-29T14:34:57;99137.75;;;0.38;78.07
75045;BME280;63614;56.026;35.960;2022-12-29T14:37:29;99131.19;;;0.45;77.85
75045;BME280;63614;56.026;35.960;2022-12-29T14:42:40;99137.34;;;0.32;78.17
75045;BME280;63614;56.026;35.960;2022-12-29T14:47:43;99132.22;;;0.32;78.08
75045;BME280;63614;56.026;35.960;2022-12-29T14:50:24;99138.44;;;0.40;78.10
75045;BME280;63614;56.026;35.960;2022-12-29T14:52:53;99135.06;;;0.39;78.17
75045;BME280;63614;56.026;35.960;2022-12-29T14:55:36;99135.56;;;0.33;78.30
75045;BME280;63614;56.026;35.960;2022-12-29T14:58:05;99128.50;;;0.46;77.88
75045;BME280;63614;56.026;35.960;2022-12-29T15:00:34;99115.03;;;0.44;78.03
75045;BME280;63614;56.026;35.960;2022-12-29T15:05:50;99124.13;;;0.27;78.31
75045;BME280;63614;56.026;35.960;2022-12-29T15:08:20;99121.50;;;0.17;78.81
75045;BME280;63614;56.026;35.960;2022-12-29T15:10:52;99114.19;;;0.34;78.48
75045;BME280;63614;56.026;35.960;2022-12-29T15:13:31;99113.47;;;0.32;78.27
75045;BME280;63614;56.026;35.960;2022-12-29T15:15:57;99115.75;;;0.25;78.79
75045;BME280;63614;56.026;35.960;2022-12-29T15:18:26;99115.66;;;0.36;78.44
75045;BME280;63614;56.026;35.960;2022-12-29T15:21:02;99118.09;;;0.38;78.54
75045;BME280;63614;56.026;35.960;2022-12-29T15:23:31;99114.84;;;0.36;78.39
75045;BME280;63614;56.026;35.960;2022-12-29T15:25:59;99112.13;;;0.28;78.51
75045;BME280;63614;56.026;35.960;2022-12-29T15:28:27;99117.91;;;0.30;78.54
75045;BME280;63614;56.026;35.960;2022-12-29T15:31:15;99115.38;;;0.30;78.58
75045;BME280;63614;56.026;35.960;2022-12-29T15:33:44;99116.31;;;0.29;78.60